Flight Track Log - Related Links

Times and Time Zones

All times are in EDT time to prevent confusion due to time zone crossing. See the AAL832 flight status page for this flight to view local times or setup timezone preferences in your user account.

Time Position Orientation Groundspeed Altitude Reporting Facility
EDT Latitude Longitude Course Direction KTS MPH feet Rate Location/Type
Fri 06:02:45 PM 41.9667 -87.9500 180° South 167 192 2,600  Level Chicago TRACON
Fri 06:03:46 PM 41.9167 -87.9833 206° Southwest 219 252 4,400 1,289 Climbing Chicago TRACON
Fri 06:04:00 PM 41.7603 -87.7772 180° South  Level Estimated
Fri 06:04:46 PM 41.8500 -88.0167 200° South 252 290 5,200  Level Chicago TRACON
Fri 06:05:00 PM 41.6496 -87.7128 180° South  Level Estimated
Fri 06:05:18 PM 41.8269 -88.0061 161° South 242 278 6,200  Level Chicago Center
Fri 06:06:00 PM 41.5389 -87.6487 176° South  Level Estimated
Fri 06:06:20 PM 41.7439 -87.9806 167° South 257 296 10,400  Level Chicago Center
Fri 06:07:00 PM 41.4281 -87.5847 189° South  Level Estimated
Fri 06:07:22 PM 41.6681 -87.9564 167° South 277 319 12,900  Level Chicago Center
Fri 06:08:00 PM 41.3167 -87.5207 180° South  Level Estimated
Fri 06:08:24 PM 41.5825 -87.9108 158° South 328 377 14,700  Level Chicago Center
Fri 06:09:27 PM 41.4847 -87.8578 158° South 373 429 17,200 2,256 Climbing Chicago Center
Fri 06:10:29 PM 41.3753 -87.8294 169° South 389 448 19,400 2,129 Climbing Chicago Center
Fri 06:11:31 PM 41.2628 -87.8047 171° South 397 457 21,600 2,081 Climbing Chicago Center
Fri 06:12:33 PM 41.1453 -87.7764 170° South 412 474 23,700 1,935 Climbing Chicago Center
Fri 06:13:35 PM 41.0256 -87.7481 170° South 426 490 25,600 1,984 Climbing Chicago Center
Fri 06:14:37 PM 40.8761 -87.7114 169° South 450 518 27,800 1,887 Climbing Chicago Center
Fri 06:15:39 PM 40.7494 -87.6822 170° South 461 531 29,500 1,597 Climbing Chicago Center
Fri 06:16:41 PM 40.6208 -87.6511 170° South 470 541 31,100 2,274 Climbing Chicago Center
Fri 06:17:43 PM 40.4950 -87.6231 170° South 463 533 34,200 2,274 Climbing Chicago Center
Fri 06:18:45 PM 40.3778 -87.5961 170° South 433 498 35,800 871 Climbing Chicago Center
Fri 06:19:47 PM 40.2342 -87.5633 170° South 439 505 36,000 97 Climbing Chicago Center
Fri 06:20:49 PM 40.1064 -87.5358 171° South 444 511 36,000  Level Chicago Center
Fri 06:21:39 PM 40.0231 -87.5181 171° South 441 507 36,000  Level Indianapolis Center
Fri 06:22:41 PM 39.8803 -87.4858 170° South 443 510 36,000 48 Level Indianapolis Center
Fri 06:23:43 PM 39.7578 -87.4567 170° South 446 513 36,100 387 Climbing Indianapolis Center
Fri 06:24:45 PM 39.6361 -87.4297 170° South 442 509 36,800 435 Climbing Indianapolis Center
Fri 06:25:47 PM 39.5156 -87.4025 170° South 441 507 37,000 97 Climbing Indianapolis Center
Fri 06:26:49 PM 39.3936 -87.3753 170° South 443 510 37,000  Level Indianapolis Center
Fri 06:27:51 PM 39.2531 -87.3458 171° South 438 504 37,000  Level Indianapolis Center
Fri 06:28:53 PM 39.1300 -87.3186 170° South 442 509 37,000  Level Indianapolis Center
Fri 06:29:55 PM 39.0047 -87.2922 171° South 443 510 37,000  Level Indianapolis Center
Fri 06:30:57 PM 38.8825 -87.2650 170° South 445 512 37,000  Level Indianapolis Center
Fri 06:31:59 PM 38.7606 -87.2381 170° South 443 510 37,000  Level Indianapolis Center
Fri 06:33:01 PM 38.6394 -87.2114 170° South 440 506 37,000  Level Indianapolis Center
Fri 06:34:03 PM 38.5183 -87.1850 170° South 440 506 37,000  Level Indianapolis Center
Fri 06:35:05 PM 38.3789 -87.1553 171° South 440 506 37,000  Level Indianapolis Center
Fri 06:36:07 PM 38.2575 -87.1297 171° South 440 506 37,000  Level Indianapolis Center
Fri 06:37:10 PM 38.1408 -87.1036 170° South 438 504 37,000  Level Indianapolis Center
Fri 06:38:11 PM 38.0211 -87.0767 170° South 437 503 37,000  Level Indianapolis Center
Fri 06:39:13 PM 37.9014 -87.0503 170° South 436 502 37,000  Level Indianapolis Center
Fri 06:40:16 PM 37.7572 -87.0186 170° South 437 503 37,000  Level Indianapolis Center
Fri 06:41:18 PM 37.6381 -86.9939 171° South 434 499 37,000  Level Indianapolis Center
Fri 06:42:20 PM 37.5244 -86.9697 170° South 432 497 37,000  Level Indianapolis Center
Fri 06:43:22 PM 37.4039 -86.9472 172° South 433 498 37,000  Level Indianapolis Center
Fri 06:44:21 PM 37.2822 -86.9211 170° South 435 501 37,000  Level Memphis Center
Fri 06:45:21 PM 37.1628 -86.8950 170° South 430 495 37,000  Level Memphis Center
Fri 06:46:22 PM 37.0453 -86.8689 170° South 430 495 37,000  Level Memphis Center
Fri 06:47:21 PM 36.9239 -86.8458 171° South 435 501 37,000  Level Memphis Center
Fri 06:48:21 PM 36.7917 -86.8178 170° South 435 501 37,000  Level Memphis Center
Fri 06:49:21 PM 36.6722 -86.7922 170° South 435 501 37,000  Level Memphis Center
Fri 06:50:21 PM 36.5528 -86.7664 170° South 435 501 37,000  Level Memphis Center
Fri 06:51:21 PM 36.4297 -86.7667 180° South 435 501 37,000  Level Memphis Center
Fri 06:52:21 PM 36.3172 -86.7692 181° South 442 509 37,000  Level Memphis Center
Fri 06:53:21 PM 36.1922 -86.7744 182° South 451 519 37,000  Level Memphis Center
Fri 06:54:21 PM 36.0725 -86.7389 167° South 451 519 37,000  Level Memphis Center
Fri 06:55:21 PM 35.9594 -86.6592 150° Southeast 451 519 37,000  Level Memphis Center
Fri 06:57:41 PM 35.6797 -86.4650 151° Southeast 473 544 37,000  Level Atlanta Center
Fri 06:58:41 PM 35.5644 -86.3850 151° Southeast 478 550 37,000  Level Atlanta Center
Fri 06:59:41 PM 35.4492 -86.3025 150° Southeast 478 550 37,000  Level Atlanta Center
Fri 07:00:41 PM 35.3339 -86.2231 151° Southeast 478 550 37,000  Level Atlanta Center
Fri 07:01:41 PM 35.2183 -86.1439 151° Southeast 478 550 37,000  Level Atlanta Center
Fri 07:02:41 PM 35.1153 -86.0725 150° Southeast 473 544 37,000  Level Atlanta Center
Fri 07:03:41 PM 34.9997 -85.9961 152° Southeast 473 544 37,000  Level Atlanta Center
Fri 07:04:41 PM 34.8758 -85.9047 149° Southeast 473 544 37,000  Level Atlanta Center
Fri 07:05:41 PM 34.7581 -85.8261 151° Southeast 478 550 37,000  Level Atlanta Center
Fri 07:06:41 PM 34.6506 -85.7608 153° Southeast 473 544 37,000  Level Atlanta Center
Fri 07:07:41 PM 34.5367 -85.6828 151° Southeast 473 544 37,000  Level Atlanta Center
Fri 07:08:41 PM 34.4189 -85.6075 152° Southeast 473 544 37,000  Level Atlanta Center
Fri 07:09:41 PM 34.3047 -85.5375 153° Southeast 468 539 37,000  Level Atlanta Center
Fri 07:10:41 PM 34.1803 -85.4850 161° South 468 539 37,000  Level Atlanta Center
Fri 07:11:41 PM 34.0578 -85.4328 161° South 468 539 37,000  Level Atlanta Center
Fri 07:12:41 PM 33.9331 -85.3783 160° South 473 544 37,000  Level Atlanta Center
Fri 07:14:41 PM 33.6967 -85.2222 151° Southeast 487 560 37,000  Level Atlanta Center
Fri 07:15:41 PM 33.5786 -85.1383 149° Southeast 495 570 37,000  Level Atlanta Center
Fri 07:16:41 PM 33.4458 -85.0494 151° Southeast 495 570 37,000  Level Atlanta Center
Fri 07:17:41 PM 33.3253 -84.9661 150° Southeast 495 570 37,000  Level Atlanta Center
Fri 07:18:41 PM 33.2047 -84.8828 150° Southeast 500 575 37,000  Level Atlanta Center
Fri 07:19:41 PM 33.0844 -84.8000 150° Southeast 495 570 37,000 400 Level Atlanta Center
Fri 07:20:41 PM 32.9594 -84.7147 150° Southeast 502 578 37,800 950 Climbing Atlanta Center
Fri 07:21:41 PM 32.8411 -84.6347 150° Southeast 502 578 38,900 600 Climbing Atlanta Center
Fri 07:22:41 PM 32.7328 -84.5647 151° Southeast 496 571 39,000 50 Climbing Atlanta Center
Fri 07:23:41 PM 32.6142 -84.4828 150° Southeast 496 571 39,000  Level Atlanta Center
Fri 07:24:41 PM 32.4933 -84.4008 150° Southeast 496 571 39,000  Level Atlanta Center
Fri 07:25:41 PM 32.3744 -84.3192 150° Southeast 496 571 39,000  Level Atlanta Center
Fri 07:27:40 PM 32.1372 -84.1611 151° Southeast 487 560 39,000  Level Jacksonville Center
Fri 07:28:40 PM 32.0169 -84.0808 150° Southeast 487 560 39,000  Level Jacksonville Center
Fri 07:29:40 PM 31.8944 -84.0036 152° Southeast 487 560 39,000  Level Jacksonville Center
Fri 07:30:40 PM 31.7739 -83.9264 151° Southeast 492 566 39,000  Level Jacksonville Center
Fri 07:31:40 PM 31.6411 -83.8344 149° Southeast 504 580 39,000  Level Jacksonville Center
Fri 07:32:40 PM 31.5122 -83.7553 152° Southeast 509 586 39,000  Level Jacksonville Center
Fri 07:33:40 PM 31.3936 -83.6764 150° Southeast 503 579 39,000  Level Jacksonville Center
Fri 07:34:40 PM 31.2731 -83.5975 151° Southeast 498 573 39,000  Level Jacksonville Center
Fri 07:35:40 PM 31.1522 -83.5189 151° Southeast 493 567 39,000  Level Jacksonville Center
Fri 07:36:40 PM 31.0336 -83.4431 151° Southeast 493 567 39,000  Level Jacksonville Center
Fri 07:37:40 PM 30.9086 -83.3647 152° Southeast 498 573 39,000  Level Jacksonville Center
Fri 07:38:40 PM 30.7942 -83.2892 150° Southeast 493 567 39,000  Level Jacksonville Center
Fri 07:39:40 PM 30.6692 -83.2211 155° Southeast 493 567 39,000  Level Jacksonville Center
Fri 07:40:40 PM 30.5564 -83.1653 157° South 488 562 39,000  Level Jacksonville Center
Fri 07:41:40 PM 30.4333 -83.1047 157° South 488 562 39,000  Level Jacksonville Center
Fri 07:42:40 PM 30.3103 -83.0417 156° South 482 555 39,000  Level Jacksonville Center
Fri 07:43:40 PM 30.1850 -82.9814 157° South 482 555 39,000  Level Jacksonville Center
Fri 07:44:40 PM 30.0619 -82.9214 157° South 482 555 39,000  Level Jacksonville Center
Fri 07:45:40 PM 29.9242 -82.8542 157° South 482 555 39,000  Level Jacksonville Center
Fri 07:46:40 PM 29.8031 -82.7944 157° South 482 555 39,000  Level Jacksonville Center
Fri 07:47:40 PM 29.6778 -82.7347 157° South 477 549 39,000  Level Jacksonville Center
Fri 07:48:40 PM 29.5544 -82.6731 156° South 483 556 39,000  Level Jacksonville Center
Fri 07:49:40 PM 29.4436 -82.6158 156° South 483 556 39,000  Level Jacksonville Center
Fri 07:50:40 PM 29.3183 -82.5711 163° South 473 544 39,000  Level Jacksonville Center
Fri 07:51:40 PM 29.1911 -82.5833 185° South 455 524 39,000  Level Jacksonville Center
Fri 07:52:40 PM 29.0636 -82.5981 186° South 453 521 39,000  Level Jacksonville Center
Fri 07:53:40 PM 28.9386 -82.6125 186° South 458 527 39,000  Level Jacksonville Center
Fri 07:54:40 PM 28.8111 -82.6294 187° South 463 533 39,000  Level Jacksonville Center
Fri 07:55:40 PM 28.6778 -82.6489 187° South 463 533 39,000  Level Jacksonville Center
Fri 07:56:40 PM 28.5525 -82.6656 187° South 458 527 39,000  Level Jacksonville Center
Fri 07:57:40 PM 28.4253 -82.6825 187° South 458 527 39,000  Level Jacksonville Center
Fri 07:59:39 PM 28.1750 -82.7156 187° South 460 529 39,000  Level Miami Center
Fri 08:00:39 PM 28.0450 -82.7278 185° South 465 535 39,000  Level Miami Center
Fri 08:01:39 PM 27.9303 -82.7311 181° South 465 535 39,000  Level Miami Center
Fri 08:02:39 PM 27.8047 -82.6872 163° South 457 526 39,000  Level Miami Center
Fri 08:03:39 PM 27.6794 -82.6386 161° South 472 543 39,000  Level Miami Center
Fri 08:04:39 PM 27.5542 -82.5903 161° South 477 549 39,000 -200 Level Miami Center
Fri 08:05:39 PM 27.4219 -82.5064 151° Southeast 488 562 38,600 -500 Descending Miami Center
Fri 08:06:39 PM 27.3172 -82.4056 139° Southeast 501 577 38,000 -800 Descending Miami Center
Fri 08:07:39 PM 27.2247 -82.3122 138° Southeast 508 585 37,000 -1,350 Descending Miami Center
Fri 08:08:39 PM 27.1222 -82.2050 137° Southeast 506 582 35,300 -1,000 Descending Miami Center
Fri 08:09:39 PM 27.0197 -82.1022 138° Southeast 506 582 35,000 -150 Descending Miami Center
Fri 08:10:39 PM 26.9169 -81.9975 138° Southeast 506 582 35,000 -400 Level Miami Center
Fri 08:11:39 PM 26.8181 -81.8978 138° Southeast 501 577 34,200 -2,200 Descending Miami Center
Fri 08:12:39 PM 26.7172 -81.7958 138° Southeast 496 571 30,600 -3,250 Descending Miami Center
Fri 08:13:39 PM 26.6144 -81.6869 137° Southeast 496 571 27,700 -3,150 Descending Miami Center
Fri 08:14:39 PM 26.5053 -81.5758 138° Southeast 496 571 24,300 -3,150 Descending Miami Center
Fri 08:15:39 PM 26.4042 -81.4767 139° Southeast 491 565 21,400 -2,650 Descending Miami Center
Fri 08:16:39 PM 26.3089 -81.3828 139° Southeast 479 551 19,000 -2,550 Descending Miami Center
Fri 08:17:39 PM 26.2219 -81.2936 137° Southeast 454 522 16,300 -2,750 Descending Miami Center
Fri 08:18:39 PM 26.1347 -81.2072 138° Southeast 434 499 13,500 -2,700 Descending Miami Center
Fri 08:19:39 PM 26.0517 -81.1233 138° Southeast 420 483 10,900 -2,211 Descending Miami Center
Fri 08:20:14 PM 26.0028 -81.0800 141° Southeast 385 443 10,000 -1,000 Descending Miami Center
Fri 08:20:39 PM 25.9744 -81.0489 135° Southeast 394 453 9,900  Descending Miami Center
Fri 08:21:15 PM 25.9336 -81.0150 143° Southeast 310 357 10,000  Climbing Miami Center
Fri 08:21:39 PM 25.9114 -80.9867 131° Southeast 347 399 9,900 -109 Descending Miami Center
Fri 08:22:10 PM 25.8872 -80.9536 129° Southeast 276 318 9,900 -700 Level Miami Center
Fri 08:22:39 PM 25.8844 -80.9094 94° East 283 326 9,200 -1,377 Descending Miami Center
Fri 08:23:11 PM 25.8814 -80.8656 94° East 278 320 8,500 -1,500 Descending Miami Center
Fri 08:23:39 PM 25.8825 -80.8217 88° East 269 310 7,700 -1,612 Descending Miami Center
Fri 08:24:18 PM 25.8778 -80.7661 95° East 280 322 6,700 -1,400 Descending Miami Center
Fri 08:24:39 PM 25.8806 -80.7364 84° East 269 310 6,300 -1,082 Descending Miami Center
Fri 08:25:19 PM 25.8778 -80.6900 94° East 254 292 5,600 -1,100 Descending Miami Center
Fri 08:25:39 PM 25.8806 -80.6625 84° East 261 300 5,200 -896 Descending Miami Center
Fri 08:26:26 PM 25.8753 -80.6206 98° East 190 219 4,600 -647 Descending Miami Center
Fri 08:27:21 PM 25.8747 -80.5653 91° East 182 209 4,100 -575 Descending Miami Center
Fri 08:27:39 PM 25.8772 -80.5444 82° East 194 223 3,900 -484 Descending Miami Center
Fri 08:28:23 PM 25.8719 -80.5028 98° East 185 213 3,600 -514 Descending Miami Center
Fri 08:29:24 PM 25.8692 -80.4497 93° East 180 207 3,000 -590 Descending Miami Center

Login

Don't have an account? Register now (free) for customized features, flight alerts, and more!